createdAt,value
2023-03-20T00:01:50.844Z,9.65
2023-03-20T00:05:53.813Z,9.63
2023-03-20T00:09:57.837Z,9.50
2023-03-20T00:14:04.195Z,9.60
2023-03-20T00:18:15.528Z,9.35
2023-03-20T00:22:18.456Z,8.40
2023-03-20T00:26:34.742Z,9.43
2023-03-20T00:30:39.039Z,9.15
2023-03-20T00:34:42.828Z,9.43
2023-03-20T00:38:45.855Z,9.60
2023-03-20T00:42:52.587Z,10.32
2023-03-20T00:46:59.192Z,10.73
2023-03-20T00:51:03.535Z,10.38
2023-03-20T00:55:08.710Z,10.30
2023-03-20T00:59:19.161Z,9.98
2023-03-20T01:03:27.149Z,9.05
2023-03-20T01:07:30.286Z,9.40
2023-03-20T01:11:33.716Z,9.75
2023-03-20T01:15:37.452Z,9.82
2023-03-20T01:19:42.647Z,9.27
2023-03-20T01:23:45.613Z,9.40
2023-03-20T01:27:52.037Z,8.38
2023-03-20T01:31:55.839Z,9.63
2023-03-20T01:36:03.356Z,9.23
2023-03-20T01:40:18.927Z,9.60
2023-03-20T01:44:23.937Z,8.30
2023-03-20T01:48:57.056Z,9.65
2023-03-20T01:53:08.697Z,8.77
2023-03-20T01:57:19.536Z,9.13
2023-03-20T02:01:25.447Z,9.70
2023-03-20T02:05:28.767Z,10.80
2023-03-20T02:09:33.275Z,9.50
2023-03-20T02:13:37.954Z,9.40
2023-03-20T02:17:42.707Z,9.77
2023-03-20T02:22:20.809Z,10.13
2023-03-20T02:26:39.305Z,9.85
2023-03-20T02:30:59.559Z,9.98
2023-03-20T02:35:38.080Z,9.82
2023-03-20T02:39:59.077Z,9.50
2023-03-20T02:44:09.885Z,10.20
2023-03-20T02:48:18.596Z,10.23
2023-03-20T02:52:27.154Z,9.23
2023-03-20T02:56:36.908Z,9.68
2023-03-20T03:00:47.485Z,10.32
2023-03-20T03:04:54.912Z,9.98
2023-03-20T03:09:05.017Z,9.82
2023-03-20T03:13:15.363Z,10.18
2023-03-20T03:17:20.974Z,10.88
2023-03-20T03:21:25.331Z,10.07
2023-03-20T03:25:31.430Z,10.30
2023-03-20T03:29:39.567Z,9.85
2023-03-20T03:33:46.183Z,9.68
2023-03-20T03:37:59.328Z,9.77
2023-03-20T03:42:08.182Z,10.25
2023-03-20T03:46:19.032Z,9.75
2023-03-20T03:50:29.200Z,9.93
2023-03-20T03:54:40.504Z,9.65
2023-03-20T03:59:12.249Z,10.40
2023-03-20T04:03:18.238Z,10.07
2023-03-20T04:07:21.838Z,8.90
2023-03-20T04:11:28.509Z,9.20
2023-03-20T04:15:31.677Z,10.27
2023-03-20T04:19:36.197Z,10.23
2023-03-20T04:23:39.331Z,10.05
2023-03-20T04:27:42.917Z,9.90
2023-03-20T04:31:53.810Z,10.07
2023-03-20T04:36:13.525Z,9.75
2023-03-20T04:40:16.806Z,9.63
2023-03-20T04:44:20.552Z,9.52
2023-03-20T04:48:24.626Z,9.73
2023-03-20T04:52:29.164Z,9.98
2023-03-20T04:56:32.201Z,9.48
2023-03-20T05:00:48.113Z,9.65
2023-03-20T05:04:51.059Z,9.68
2023-03-20T05:08:55.744Z,9.75
2023-03-20T05:12:59.030Z,10.48
2023-03-20T05:17:12.238Z,10.73
2023-03-20T05:21:37.959Z,10.10
2023-03-20T05:25:53.772Z,10.07
2023-03-20T05:30:32.191Z,10.00
2023-03-20T05:34:41.148Z,9.48
2023-03-20T05:38:58.081Z,10.20
2023-03-20T05:43:29.256Z,10.60
2023-03-20T05:47:59.834Z,9.95
2023-03-20T05:52:02.730Z,10.55
2023-03-20T05:56:16.537Z,10.40
2023-03-20T06:00:29.281Z,9.65
2023-03-20T06:04:55.185Z,10.35
2023-03-20T06:09:07.314Z,10.60
2023-03-20T06:13:10.915Z,10.25
2023-03-20T06:17:16.605Z,10.88
2023-03-20T06:21:24.721Z,9.73
2023-03-20T06:25:29.626Z,11.38
2023-03-20T06:29:32.808Z,11.27
2023-03-20T06:33:49.076Z,10.10
2023-03-20T06:37:52.224Z,11.13
2023-03-20T06:41:59.588Z,11.30
2023-03-20T06:46:02.628Z,11.77
2023-03-20T06:50:11.616Z,11.27
2023-03-20T06:54:14.596Z,12.15
2023-03-20T06:58:18.740Z,12.48
2023-03-20T07:02:25.928Z,11.75
2023-03-20T07:06:30.347Z,12.00
2023-03-20T07:10:33.308Z,11.75
2023-03-20T07:14:36.420Z,10.80
2023-03-20T07:18:43.340Z,12.00
2023-03-20T07:22:49.667Z,11.98
2023-03-20T07:27:00.016Z,11.88
2023-03-20T07:31:03.134Z,12.15
2023-03-20T07:35:09.344Z,11.15
2023-03-20T07:39:15.129Z,9.90
2023-03-20T07:43:23.798Z,10.30
2023-03-20T07:47:49.922Z,9.95
2023-03-20T07:51:54.536Z,9.98
2023-03-20T07:56:00.170Z,9.60
2023-03-20T08:00:04.376Z,9.23
2023-03-20T08:04:14.586Z,8.43
2023-03-20T08:08:17.843Z,8.05
2023-03-20T08:12:22.632Z,8.25
2023-03-20T08:16:26.024Z,7.18
2023-03-20T08:20:29.148Z,6.93
2023-03-20T08:24:32.260Z,7.25
2023-03-20T08:28:46.963Z,6.30
2023-03-20T08:32:51.436Z,6.97
2023-03-20T08:36:54.677Z,6.30
2023-03-20T08:40:58.310Z,5.40
2023-03-20T08:45:02.710Z,5.15
2023-03-20T08:49:05.594Z,4.65
2023-03-20T08:53:08.491Z,4.78
2023-03-20T08:57:12.017Z,4.63
2023-03-20T09:01:16.474Z,4.57
2023-03-20T09:05:19.537Z,5.18
2023-03-20T09:09:29.224Z,4.88
2023-03-20T09:13:32.394Z,5.15
2023-03-20T09:17:36.895Z,5.20
2023-03-20T09:21:40.033Z,4.40
2023-03-20T09:25:43.088Z,5.68
2023-03-20T09:29:45.991Z,4.50
2023-03-20T09:33:50.422Z,4.43
2023-03-20T09:37:54.278Z,4.20
2023-03-20T09:42:01.727Z,4.50
2023-03-20T09:46:21.360Z,3.80
2023-03-20T09:50:33.037Z,4.15
2023-03-20T09:54:53.145Z,3.78
2023-03-20T09:58:58.597Z,3.72
2023-03-20T10:03:04.499Z,4.07
2023-03-20T10:07:13.970Z,3.80
2023-03-20T10:11:33.526Z,3.38
2023-03-20T10:15:47.521Z,3.13
2023-03-20T10:19:53.560Z,3.30
2023-03-20T10:24:04.443Z,3.15
2023-03-20T10:28:13.949Z,3.28
2023-03-20T10:32:26.243Z,2.80
2023-03-20T10:36:48.052Z,3.53
2023-03-20T10:40:52.975Z,3.47
2023-03-20T10:44:59.775Z,3.88
2023-03-20T10:49:30.981Z,4.28
2023-03-20T10:53:38.502Z,3.25
2023-03-20T10:57:48.955Z,3.17
2023-03-20T11:01:51.868Z,3.05
2023-03-20T11:06:09.234Z,3.05
2023-03-20T11:10:17.020Z,3.20
2023-03-20T11:14:24.326Z,2.80
2023-03-20T11:18:27.809Z,3.35
2023-03-20T11:22:31.286Z,2.15
2023-03-20T11:26:38.586Z,2.22
2023-03-20T11:31:01.363Z,2.20
2023-03-20T11:35:20.528Z,2.40
2023-03-20T11:39:26.862Z,2.10
2023-03-20T11:43:29.951Z,2.15
2023-03-20T11:47:36.683Z,2.10
2023-03-20T11:51:40.844Z,2.10
2023-03-20T11:55:47.229Z,2.15
2023-03-20T11:59:50.180Z,2.20
2023-03-20T12:04:03.586Z,2.55
2023-03-20T12:08:14.946Z,2.58
2023-03-20T12:12:32.510Z,3.22
2023-03-20T12:16:38.183Z,2.70
2023-03-20T12:20:47.752Z,3.35
2023-03-20T12:24:59.782Z,3.25
2023-03-20T12:29:09.093Z,3.17
2023-03-20T12:33:19.661Z,2.85
2023-03-20T12:37:24.365Z,2.13
2023-03-20T12:41:31.510Z,2.22
2023-03-20T12:45:39.975Z,2.70
2023-03-20T12:49:52.605Z,2.53
2023-03-20T12:54:06.505Z,2.00
2023-03-20T12:58:22.731Z,2.03
2023-03-20T13:02:35.023Z,2.63
2023-03-20T13:06:51.756Z,2.70
2023-03-20T13:11:04.045Z,2.83
2023-03-20T13:15:21.682Z,2.45
2023-03-20T13:19:35.214Z,2.47
2023-03-20T13:23:45.500Z,2.42
2023-03-20T13:27:55.641Z,2.63
2023-03-20T13:32:09.146Z,2.38
2023-03-20T13:36:22.115Z,2.70
2023-03-20T13:40:27.738Z,2.38
2023-03-20T13:44:33.565Z,2.80
2023-03-20T13:48:39.118Z,2.30
2023-03-20T13:52:50.012Z,2.53
2023-03-20T13:56:58.700Z,2.17
2023-03-20T14:01:09.178Z,2.22
2023-03-20T14:05:15.466Z,2.05
2023-03-20T14:09:33.599Z,2.25
2023-03-20T14:13:37.084Z,2.20
2023-03-20T14:17:45.533Z,2.25
2023-03-20T14:21:50.097Z,2.50
2023-03-20T14:25:56.457Z,2.17
2023-03-20T14:30:39.412Z,2.35
2023-03-20T14:34:48.602Z,2.20
2023-03-20T14:39:03.819Z,2.40
2023-03-20T14:43:15.714Z,2.35
2023-03-20T14:47:27.222Z,2.20
2023-03-20T14:51:42.708Z,2.42
2023-03-20T14:55:52.502Z,2.75
2023-03-20T14:59:56.243Z,2.60
2023-03-20T15:04:03.632Z,2.60
2023-03-20T15:08:11.253Z,2.30
2023-03-20T15:12:18.217Z,2.30
2023-03-20T15:16:28.542Z,2.63
2023-03-20T15:20:31.920Z,2.42
2023-03-20T15:24:36.386Z,2.08
2023-03-20T15:28:39.976Z,2.08
2023-03-20T15:32:44.064Z,2.13
2023-03-20T15:36:47.137Z,2.00
2023-03-20T15:40:52.086Z,2.35
2023-03-20T15:44:56.973Z,2.08
2023-03-20T15:49:00.399Z,1.98
2023-03-20T15:53:04.511Z,1.90
2023-03-20T15:57:10.630Z,1.70
2023-03-20T16:01:19.266Z,1.88
2023-03-20T16:05:26.608Z,1.95
2023-03-20T16:09:30.140Z,1.95
2023-03-20T16:13:39.034Z,1.55
2023-03-20T16:17:42.363Z,1.77
2023-03-20T16:21:51.812Z,1.90
2023-03-20T16:25:58.711Z,2.28
2023-03-20T16:30:07.797Z,1.98
2023-03-20T16:34:19.646Z,2.28
2023-03-20T16:38:26.114Z,2.13
2023-03-20T16:42:30.950Z,1.90
2023-03-20T16:46:35.483Z,1.80
2023-03-20T16:50:40.305Z,2.42
2023-03-20T16:54:45.919Z,2.30
2023-03-20T16:58:49.349Z,2.28
2023-03-20T17:03:01.267Z,2.28
2023-03-20T17:07:09.383Z,2.35
2023-03-20T17:11:15.640Z,2.20
2023-03-20T17:15:21.145Z,2.75
2023-03-20T17:19:25.998Z,2.33
2023-03-20T17:23:28.985Z,2.80
2023-03-20T17:27:33.331Z,2.53
2023-03-20T17:31:36.343Z,2.42
2023-03-20T17:35:40.949Z,2.50
2023-03-20T17:39:43.996Z,2.22
2023-03-20T17:43:47.569Z,1.90
2023-03-20T17:47:51.698Z,2.35
2023-03-20T17:51:56.543Z,2.30
2023-03-20T17:55:59.780Z,2.70
2023-03-20T18:00:05.823Z,2.92
2023-03-20T18:04:09.066Z,2.50
2023-03-20T18:08:16.794Z,2.42
2023-03-20T18:12:21.129Z,3.08
2023-03-20T18:16:26.844Z,2.88
2023-03-20T18:20:32.085Z,2.70
2023-03-20T18:24:36.587Z,3.83
2023-03-20T18:28:39.711Z,3.30
2023-03-20T18:32:42.756Z,3.42
2023-03-20T18:36:46.748Z,3.60
2023-03-20T18:40:51.136Z,3.58
2023-03-20T18:44:54.439Z,3.13
2023-03-20T18:48:58.034Z,3.40
2023-03-20T18:53:01.174Z,3.55
2023-03-20T18:57:05.834Z,3.20
2023-03-20T19:01:11.342Z,3.63
2023-03-20T19:05:14.439Z,3.10
2023-03-20T19:09:18.432Z,2.97
2023-03-20T19:13:24.769Z,3.72
2023-03-20T19:17:27.937Z,4.35
2023-03-20T19:21:32.228Z,4.05
2023-03-20T19:25:36.747Z,4.30
2023-03-20T19:29:41.068Z,4.07
2023-03-20T19:33:44.507Z,3.72
2023-03-20T19:37:47.800Z,3.70
2023-03-20T19:41:51.807Z,4.05
2023-03-20T19:45:58.568Z,4.05
2023-03-20T19:50:01.855Z,4.45
2023-03-20T19:54:05.108Z,4.07
2023-03-20T19:58:08.856Z,3.78
2023-03-20T20:02:13.449Z,3.80
2023-03-20T20:06:16.824Z,3.63
2023-03-20T20:10:21.084Z,4.07
2023-03-20T20:14:24.209Z,4.47
2023-03-20T20:18:30.408Z,3.55
2023-03-20T20:22:33.946Z,3.90
2023-03-20T20:26:41.229Z,3.85
2023-03-20T20:30:54.603Z,4.00
2023-03-20T20:39:21.977Z,4.40
2023-03-20T20:43:56.703Z,4.03
2023-03-20T20:47:48.908Z,4.05
2023-03-20T20:51:53.201Z,3.45
2023-03-20T20:55:56.229Z,4.03
2023-03-20T21:00:00.325Z,3.70
2023-03-20T21:04:03.417Z,3.75
2023-03-20T21:08:07.999Z,3.40
2023-03-20T21:12:22.854Z,4.10
2023-03-20T21:16:33.628Z,3.70
2023-03-20T21:20:36.613Z,4.57
2023-03-20T21:24:41.255Z,3.38
2023-03-20T21:28:44.191Z,3.97
2023-03-20T21:32:47.337Z,3.95
2023-03-20T21:36:51.359Z,3.47
2023-03-20T21:40:55.935Z,3.42
2023-03-20T21:45:56.132Z,3.33
2023-03-20T21:58:51.125Z,3.17
2023-03-20T22:02:34.762Z,3.50
2023-03-20T22:11:47.566Z,3.50
2023-03-20T22:33:55.676Z,2.90
2023-03-20T22:38:21.806Z,3.00
2023-03-20T22:42:30.665Z,3.00
2023-03-20T22:46:36.367Z,2.90
2023-03-20T22:50:36.268Z,2.97
2023-03-20T22:54:39.368Z,3.30
2023-03-20T22:58:42.274Z,2.88
2023-03-20T23:02:45.460Z,3.20
2023-03-20T23:06:49.978Z,3.22
2023-03-20T23:10:53.321Z,3.40
2023-03-20T23:14:56.374Z,3.28
2023-03-20T23:18:59.352Z,3.15
2023-03-20T23:23:03.674Z,3.28
2023-03-20T23:27:06.585Z,3.28
2023-03-20T23:31:12.279Z,3.58
2023-03-20T23:35:15.415Z,3.33
2023-03-20T23:39:19.856Z,3.15
2023-03-20T23:43:22.759Z,3.38
2023-03-20T23:47:29.877Z,3.42
2023-03-20T23:51:35.595Z,3.55
2023-03-20T23:55:40.303Z,3.10
2023-03-20T23:59:43.950Z,3.60
